Terminal Aerodrome Forecast
Issued by NWS Cleveland, OH

Home | Current Version | Previous Version | Graphics & Text | Print | Product List | Glossary On
Versions: 1 2 3 4 5 6 7 8 9 10 11 12 13 14 15 16
000
FTUS41 KCLE 142337
TAFCAK
TAF
KCAK 142337Z 1500/1524 17009KT P6SM SCT100
     FM150700 20010KT P6SM BKN150 WS020/22040KT
     FM151000 21012G20KT P6SM SCT030 BKN050
     FM151600 22020G30KT P6SM BKN025
     FM151800 22025G35KT 6SM -SHRA OVC020
     FM152000 26025G35KT P6SM OVC020=

USA.gov is the U.S. government's official web portal to all federal, state and local government web resources and services.